createdAt,value
2023-02-14T00:00:58.000Z,7.13
2023-02-14T00:04:01.531Z,6.72
2023-02-14T00:07:03.460Z,7.12
2023-02-14T00:10:05.696Z,6.97
2023-02-14T00:13:07.651Z,6.57
2023-02-14T00:16:09.561Z,6.50
2023-02-14T00:19:12.377Z,7.03
2023-02-14T00:22:14.273Z,6.32
2023-02-14T00:25:16.442Z,6.35
2023-02-14T00:28:18.335Z,6.26
2023-02-14T00:31:20.314Z,5.99
2023-02-14T00:34:22.293Z,5.71
2023-02-14T00:37:24.229Z,5.92
2023-02-14T00:40:26.432Z,5.99
2023-02-14T00:43:28.313Z,5.76
2023-02-14T00:46:30.205Z,6.07
2023-02-14T00:49:32.178Z,5.80
2023-02-14T00:52:34.084Z,5.92
2023-02-14T00:55:36.011Z,5.81
2023-02-14T00:58:37.920Z,6.00
2023-02-14T01:01:39.853Z,5.88
2023-02-14T01:04:41.820Z,6.61
2023-02-14T01:07:43.813Z,6.89
2023-02-14T01:10:46.163Z,6.75
2023-02-14T01:13:48.608Z,6.21
2023-02-14T01:16:50.598Z,5.94
2023-02-14T01:19:52.676Z,5.83
2023-02-14T01:22:54.704Z,6.04
2023-02-14T01:25:56.827Z,5.92
2023-02-14T01:28:58.786Z,5.83
2023-02-14T01:32:01.037Z,6.05
2023-02-14T01:35:03.109Z,5.88
2023-02-14T01:38:04.948Z,6.21
2023-02-14T01:41:06.856Z,6.12
2023-02-14T01:44:14.839Z,6.39
2023-02-14T01:47:16.743Z,6.45
2023-02-14T01:50:22.632Z,6.21
2023-02-14T01:53:27.021Z,6.16
2023-02-14T01:56:30.482Z,6.24
2023-02-14T01:59:34.216Z,6.09
2023-02-14T02:02:36.224Z,6.54
2023-02-14T02:05:38.731Z,6.95
2023-02-14T02:08:42.680Z,6.93
2023-02-14T02:11:44.936Z,6.82
2023-02-14T02:14:47.131Z,6.80
2023-02-14T02:17:51.716Z,6.93
2023-02-14T02:21:13.972Z,6.61
2023-02-14T02:24:24.244Z,6.42
2023-02-14T02:28:04.866Z,6.49
2023-02-14T02:31:25.777Z,5.99
2023-02-14T02:34:39.816Z,6.23
2023-02-14T02:37:55.599Z,6.31
2023-02-14T02:41:00.707Z,6.32
2023-02-14T02:44:16.042Z,6.42
2023-02-14T02:47:20.112Z,6.29
2023-02-14T02:50:46.691Z,5.87
2023-02-14T02:53:51.325Z,6.25
2023-02-14T02:56:56.131Z,6.11
2023-02-14T02:59:58.096Z,6.21
2023-02-14T03:03:18.963Z,6.73
2023-02-14T03:06:20.958Z,6.40
2023-02-14T03:09:22.753Z,6.00
2023-02-14T03:12:30.807Z,6.20
2023-02-14T03:15:36.840Z,6.22
2023-02-14T03:19:09.772Z,5.75
2023-02-14T03:22:18.788Z,5.74
2023-02-14T03:25:30.675Z,6.08
2023-02-14T03:28:47.913Z,6.53
2023-02-14T03:31:55.749Z,6.23
2023-02-14T03:34:59.506Z,5.40
2023-02-14T03:38:04.324Z,5.04
2023-02-14T03:41:07.808Z,5.77
2023-02-14T03:44:13.004Z,5.69
2023-02-14T03:47:17.023Z,5.56
2023-02-14T03:50:19.891Z,4.92
2023-02-14T03:53:22.892Z,4.86
2023-02-14T03:56:43.607Z,5.10
2023-02-14T03:59:46.017Z,5.18
2023-02-14T04:02:59.215Z,5.78
2023-02-14T04:06:01.169Z,5.28
2023-02-14T04:09:03.422Z,5.56
2023-02-14T04:12:05.384Z,4.71
2023-02-14T04:15:07.478Z,4.27
2023-02-14T04:18:28.293Z,5.02
2023-02-14T04:21:30.092Z,4.90
2023-02-14T04:24:31.972Z,5.05
2023-02-14T04:27:33.882Z,4.74
2023-02-14T04:30:35.814Z,5.15
2023-02-14T04:33:39.376Z,5.04
2023-02-14T04:36:41.235Z,4.77
2023-02-14T04:39:43.217Z,4.15
2023-02-14T04:42:46.594Z,5.23
2023-02-14T04:45:48.790Z,5.21
2023-02-14T04:48:50.840Z,4.91
2023-02-14T04:51:52.722Z,4.31
2023-02-14T04:54:54.614Z,4.97
2023-02-14T04:57:56.742Z,3.97
2023-02-14T05:00:59.139Z,4.61
2023-02-14T05:04:01.213Z,4.84
2023-02-14T05:07:03.065Z,4.57
2023-02-14T05:10:05.425Z,5.27
2023-02-14T05:13:07.251Z,5.11
2023-02-14T05:16:09.271Z,5.57
2023-02-14T05:19:11.177Z,5.63
2023-02-14T05:22:13.246Z,5.30
2023-02-14T05:25:15.374Z,5.08
2023-02-14T05:28:17.919Z,5.61
2023-02-14T05:31:20.231Z,5.75
2023-02-14T05:34:22.295Z,5.98
2023-02-14T05:37:24.235Z,5.97
2023-02-14T05:43:27.293Z,5.46
2023-02-14T05:46:29.195Z,5.44
2023-02-14T05:49:31.075Z,4.56
2023-02-14T05:52:32.944Z,5.05
2023-02-14T05:55:34.912Z,5.12
2023-02-14T05:58:36.824Z,5.93
2023-02-14T06:01:38.877Z,6.30
2023-02-14T06:04:40.833Z,5.91
2023-02-14T06:07:43.741Z,5.93
2023-02-14T06:10:46.235Z,5.83
2023-02-14T06:13:48.187Z,5.82
2023-02-14T06:16:50.270Z,5.75
2023-02-14T06:19:52.131Z,5.99
2023-02-14T06:22:54.202Z,5.83
2023-02-14T06:25:56.451Z,5.62
2023-02-14T06:28:58.630Z,5.24
2023-02-14T06:32:05.954Z,5.54
2023-02-14T06:35:08.211Z,6.35
2023-02-14T06:38:10.066Z,7.21
2023-02-14T06:41:12.043Z,8.17
2023-02-14T06:44:14.316Z,8.79
2023-02-14T06:47:16.271Z,9.10
2023-02-14T06:50:18.512Z,9.34
2023-02-14T06:53:20.684Z,10.40
2023-02-14T06:56:22.571Z,11.13
2023-02-14T06:59:24.534Z,11.40
2023-02-14T07:02:26.704Z,11.90
2023-02-14T07:05:28.818Z,11.30
2023-02-14T07:08:30.874Z,10.44
2023-02-14T07:11:33.134Z,10.90
2023-02-14T07:14:35.065Z,12.42
2023-02-14T07:17:36.970Z,11.31
2023-02-14T07:20:38.978Z,13.27
2023-02-14T07:23:41.582Z,13.43
2023-02-14T07:26:43.505Z,13.99
2023-02-14T07:29:45.373Z,14.37
2023-02-14T07:32:49.478Z,12.85
2023-02-14T07:35:51.366Z,12.42
2023-02-14T07:38:53.304Z,10.47
2023-02-14T07:41:55.243Z,8.42
2023-02-14T07:44:57.305Z,8.67
2023-02-14T07:48:02.091Z,7.43
2023-02-14T07:51:04.242Z,6.47
2023-02-14T07:54:06.165Z,6.66
2023-02-14T07:57:08.007Z,6.44
2023-02-14T08:00:10.155Z,6.93
2023-02-14T08:03:14.851Z,6.69
2023-02-14T08:06:17.562Z,6.30
2023-02-14T08:09:25.522Z,5.74
2023-02-14T08:12:46.440Z,6.46
2023-02-14T08:16:06.799Z,6.95
2023-02-14T08:19:09.066Z,6.24
2023-02-14T08:22:10.977Z,7.76
2023-02-14T08:25:12.998Z,8.14
2023-02-14T08:28:15.145Z,7.58
2023-02-14T08:31:34.509Z,7.94
2023-02-14T08:34:37.397Z,6.98
2023-02-14T08:37:39.399Z,8.64
2023-02-14T08:40:41.805Z,8.81
2023-02-14T08:43:44.052Z,7.24
2023-02-14T08:46:46.140Z,6.82
2023-02-14T08:49:48.211Z,7.91
2023-02-14T08:52:50.234Z,8.41
2023-02-14T08:55:52.588Z,8.38
2023-02-14T08:58:55.026Z,8.42
2023-02-14T09:01:57.076Z,8.71
2023-02-14T09:04:58.970Z,7.54
2023-02-14T09:08:02.261Z,7.09
2023-02-14T09:11:10.727Z,7.60
2023-02-14T09:14:12.882Z,8.89
2023-02-14T09:17:15.480Z,8.96
2023-02-14T09:20:17.715Z,8.03
2023-02-14T09:23:19.763Z,8.76
2023-02-14T09:26:21.880Z,7.93
2023-02-14T09:29:24.370Z,7.43
2023-02-14T09:32:29.441Z,9.08
2023-02-14T09:35:31.626Z,8.66
2023-02-14T09:38:33.498Z,9.19
2023-02-14T09:41:54.818Z,8.14
2023-02-14T09:45:00.943Z,9.29
2023-02-14T09:48:21.161Z,9.95
2023-02-14T09:51:26.130Z,9.61
2023-02-14T09:54:29.150Z,9.57
2023-02-14T09:57:39.946Z,8.18
2023-02-14T10:00:45.004Z,8.64
2023-02-14T10:03:50.278Z,8.79
2023-02-14T10:06:53.277Z,8.72
2023-02-14T10:10:15.373Z,8.71
2023-02-14T10:13:19.645Z,8.58
2023-02-14T10:16:28.708Z,8.53
2023-02-14T10:19:43.547Z,8.34
2023-02-14T10:22:47.171Z,7.94
2023-02-14T10:25:52.288Z,9.23
2023-02-14T10:28:54.446Z,8.85
2023-02-14T10:32:00.984Z,9.10
2023-02-14T10:35:05.648Z,9.50
2023-02-14T10:38:10.993Z,9.96
2023-02-14T10:41:31.740Z,11.65
2023-02-14T10:44:42.980Z,13.01
2023-02-14T10:47:51.373Z,13.12
2023-02-14T10:50:58.181Z,12.78
2023-02-14T10:54:06.749Z,15.10
2023-02-14T10:57:19.424Z,17.57
2023-02-14T11:00:22.530Z,15.83
2023-02-14T11:03:24.722Z,18.44
2023-02-14T11:06:27.932Z,15.43
2023-02-14T11:09:29.967Z,17.81
2023-02-14T11:12:39.760Z,17.80
2023-02-14T11:15:41.699Z,18.18
2023-02-14T11:18:44.355Z,16.14
2023-02-14T11:21:47.255Z,15.71
2023-02-14T11:24:49.559Z,14.84
2023-02-14T11:28:05.189Z,16.33
2023-02-14T11:31:07.178Z,16.87
2023-02-14T11:34:28.055Z,17.69
2023-02-14T11:37:30.928Z,17.64
2023-02-14T11:40:39.285Z,17.87
2023-02-14T11:43:42.809Z,14.73
2023-02-14T11:46:53.194Z,14.70
2023-02-14T11:50:22.134Z,17.58
2023-02-14T11:53:26.275Z,15.70
2023-02-14T11:56:42.429Z,15.44
2023-02-14T11:59:45.420Z,16.71
2023-02-14T12:02:49.123Z,14.66
2023-02-14T12:05:56.464Z,15.42
2023-02-14T12:09:32.068Z,18.04
2023-02-14T12:12:34.725Z,20.07
2023-02-14T12:15:40.818Z,20.13
2023-02-14T12:18:43.308Z,19.93
2023-02-14T12:21:45.488Z,20.83
2023-02-14T12:24:50.003Z,17.13
2023-02-14T12:28:03.584Z,15.65
2023-02-14T12:31:09.849Z,14.03
2023-02-14T12:34:12.261Z,12.74
2023-02-14T12:37:17.996Z,13.66
2023-02-14T12:40:39.125Z,13.14
2023-02-14T12:43:41.140Z,13.09
2023-02-14T12:46:46.911Z,15.80
2023-02-14T12:50:08.069Z,17.33
2023-02-14T12:57:07.606Z,16.48
2023-02-14T13:00:09.607Z,15.25
2023-02-14T13:03:14.370Z,16.75
2023-02-14T13:06:35.115Z,16.88
2023-02-14T13:09:57.385Z,16.54
2023-02-14T13:13:06.537Z,20.10
2023-02-14T13:16:08.633Z,19.31
2023-02-14T13:19:13.910Z,21.87
2023-02-14T13:22:17.823Z,23.01
2023-02-14T13:25:34.006Z,19.94
2023-02-14T13:28:36.616Z,21.10
2023-02-14T13:31:38.762Z,19.44
2023-02-14T13:34:45.578Z,20.22
2023-02-14T13:37:55.122Z,19.43
2023-02-14T13:40:58.318Z,19.44
2023-02-14T13:44:05.485Z,20.80
2023-02-14T13:47:08.300Z,24.52
2023-02-14T13:50:18.416Z,22.48
2023-02-14T13:53:39.046Z,23.38
2023-02-14T13:56:40.963Z,25.14
2023-02-14T13:59:42.900Z,27.73
2023-02-14T14:02:49.184Z,24.69
2023-02-14T14:05:58.080Z,24.39
2023-02-14T14:09:00.440Z,25.55
2023-02-14T14:12:02.587Z,22.57
2023-02-14T14:15:04.462Z,19.17
2023-02-14T14:18:15.979Z,16.81
2023-02-14T14:21:30.361Z,17.45
2023-02-14T14:24:33.239Z,17.16
2023-02-14T14:27:36.334Z,18.97
2023-02-14T14:30:38.392Z,16.91
2023-02-14T14:33:40.366Z,19.88
2023-02-14T14:36:42.295Z,19.91
2023-02-14T14:39:49.769Z,16.95
2023-02-14T14:42:51.854Z,14.92
2023-02-14T14:45:56.090Z,13.63
2023-02-14T14:48:58.109Z,13.95
2023-02-14T14:52:00.276Z,14.05
2023-02-14T14:55:02.463Z,13.62
2023-02-14T14:58:05.705Z,12.40
2023-02-14T15:01:10.390Z,13.92
2023-02-14T15:04:16.748Z,13.71
2023-02-14T15:07:21.154Z,12.47
2023-02-14T15:10:26.118Z,12.80
2023-02-14T15:13:51.363Z,12.39
2023-02-14T15:16:54.802Z,12.48
2023-02-14T15:19:58.033Z,12.98
2023-02-14T15:23:00.031Z,13.21
2023-02-14T15:26:02.161Z,13.19
2023-02-14T15:29:07.497Z,11.46
2023-02-14T15:32:09.610Z,11.40
2023-02-14T15:35:11.655Z,11.67
2023-02-14T15:38:13.882Z,12.65
2023-02-14T15:41:15.874Z,11.73
2023-02-14T15:44:21.377Z,11.61
2023-02-14T15:47:23.452Z,11.86
2023-02-14T15:50:27.811Z,11.73
2023-02-14T15:53:33.620Z,11.93
2023-02-14T15:56:36.616Z,11.84
2023-02-14T15:59:41.158Z,11.57
2023-02-14T16:02:43.594Z,11.63
2023-02-14T16:05:48.713Z,11.27
2023-02-14T16:08:54.835Z,11.18
2023-02-14T16:11:56.767Z,11.69
2023-02-14T16:15:01.244Z,11.00
2023-02-14T16:18:08.317Z,11.12
2023-02-14T16:21:11.488Z,11.29
2023-02-14T16:24:13.987Z,11.72
2023-02-14T16:27:15.967Z,10.93
2023-02-14T16:30:18.477Z,11.22
2023-02-14T16:33:22.074Z,10.88
2023-02-14T16:36:27.896Z,11.24
2023-02-14T16:39:29.941Z,11.46
2023-02-14T16:42:32.975Z,11.44
2023-02-14T16:45:34.841Z,11.30
2023-02-14T16:48:39.235Z,10.90
2023-02-14T16:51:42.946Z,11.18
2023-02-14T16:54:44.945Z,10.83
2023-02-14T16:57:47.348Z,11.10
2023-02-14T17:00:49.484Z,10.89
2023-02-14T17:03:51.670Z,11.00
2023-02-14T17:06:54.327Z,10.28
2023-02-14T17:09:57.188Z,9.73
2023-02-14T17:12:59.438Z,10.40
2023-02-14T17:16:01.688Z,10.39
2023-02-14T17:19:03.730Z,9.89
2023-02-14T17:22:05.947Z,9.92
2023-02-14T17:25:08.122Z,10.15
2023-02-14T17:28:10.904Z,10.64
2023-02-14T17:31:13.190Z,9.92
2023-02-14T17:34:15.395Z,9.68
2023-02-14T17:37:19.028Z,9.85
2023-02-14T17:40:21.396Z,10.00
2023-02-14T17:43:24.255Z,10.15
2023-02-14T17:46:27.507Z,10.41
2023-02-14T17:49:29.488Z,10.12
2023-02-14T17:52:31.466Z,9.66
2023-02-14T17:55:35.821Z,9.20
2023-02-14T17:58:38.016Z,9.47
2023-02-14T18:01:40.063Z,9.71
2023-02-14T18:04:41.990Z,9.32
2023-02-14T18:07:44.337Z,8.43
2023-02-14T18:10:46.243Z,9.31
2023-02-14T18:13:48.595Z,9.68
2023-02-14T18:16:50.551Z,8.38
2023-02-14T18:19:52.800Z,9.55
2023-02-14T18:22:54.854Z,9.73
2023-02-14T18:25:57.898Z,9.48
2023-02-14T18:29:01.162Z,9.68
2023-02-14T18:32:04.880Z,9.53
2023-02-14T18:35:07.022Z,9.09
2023-02-14T18:38:08.899Z,9.06
2023-02-14T18:41:12.358Z,9.13
2023-02-14T18:44:14.686Z,8.71
2023-02-14T18:47:16.646Z,8.46
2023-02-14T18:50:18.674Z,8.59
2023-02-14T18:53:20.619Z,8.33
2023-02-14T18:56:23.666Z,8.73
2023-02-14T18:59:25.621Z,8.70
2023-02-14T19:02:27.596Z,8.90
2023-02-14T19:05:31.143Z,7.85
2023-02-14T19:08:33.835Z,8.42
2023-02-14T19:11:35.775Z,8.68
2023-02-14T19:14:37.708Z,8.35
2023-02-14T19:17:39.616Z,8.51
2023-02-14T19:20:41.501Z,8.69
2023-02-14T19:23:44.086Z,8.85
2023-02-14T19:26:46.397Z,8.93
2023-02-14T19:29:48.401Z,8.98
2023-02-14T19:32:50.425Z,8.70
2023-02-14T19:35:59.403Z,7.93
2023-02-14T19:39:01.308Z,9.23
2023-02-14T19:42:05.249Z,9.29
2023-02-14T19:45:07.631Z,8.32
2023-02-14T19:48:09.764Z,8.22
2023-02-14T19:51:15.873Z,8.36
2023-02-14T19:54:18.222Z,8.27
2023-02-14T19:57:20.236Z,8.59
2023-02-14T20:00:22.183Z,8.00
2023-02-14T20:03:24.399Z,8.24
2023-02-14T20:06:26.733Z,7.94
2023-02-14T20:09:29.272Z,8.33
2023-02-14T20:12:31.279Z,8.58
2023-02-14T20:15:34.793Z,8.21
2023-02-14T20:18:37.008Z,7.73
2023-02-14T20:21:42.945Z,7.75
2023-02-14T20:24:45.147Z,8.11
2023-02-14T20:27:47.055Z,7.65
2023-02-14T20:30:48.956Z,7.90
2023-02-14T20:33:51.988Z,7.88
2023-02-14T20:36:55.318Z,7.48
2023-02-14T20:39:57.313Z,7.63
2023-02-14T20:42:59.143Z,7.59
2023-02-14T20:46:01.509Z,6.53
2023-02-14T20:49:03.712Z,7.49
2023-02-14T20:52:05.982Z,7.20
2023-02-14T20:55:08.055Z,7.23
2023-02-14T20:58:10.350Z,7.12
2023-02-14T21:01:16.242Z,6.62
2023-02-14T21:04:18.145Z,7.12
2023-02-14T21:07:20.026Z,7.18
2023-02-14T21:10:22.045Z,7.04
2023-02-14T21:13:24.067Z,6.75
2023-02-14T21:16:26.259Z,6.70
2023-02-14T21:19:28.638Z,6.55
2023-02-14T21:22:30.674Z,6.10
2023-02-14T21:25:32.511Z,6.30
2023-02-14T21:28:34.385Z,7.35
2023-02-14T21:31:36.668Z,6.55
2023-02-14T21:34:40.934Z,6.58
2023-02-14T21:37:43.963Z,6.40
2023-02-14T21:40:48.140Z,5.84
2023-02-14T21:43:52.613Z,6.16
2023-02-14T21:46:54.631Z,5.96
2023-02-14T21:50:15.162Z,6.38
2023-02-14T21:53:17.213Z,6.37
2023-02-14T21:56:22.298Z,5.78
2023-02-14T21:59:24.376Z,5.63
2023-02-14T22:02:26.269Z,6.03
2023-02-14T22:05:28.375Z,6.34
2023-02-14T22:08:30.573Z,6.01
2023-02-14T22:11:32.506Z,6.09
2023-02-14T22:14:34.444Z,6.85
2023-02-14T22:17:36.407Z,6.57
2023-02-14T22:20:38.288Z,7.06
2023-02-14T22:23:40.345Z,6.57
2023-02-14T22:26:42.434Z,6.11
2023-02-14T22:29:44.448Z,5.33
2023-02-14T22:32:46.383Z,6.18
2023-02-14T22:35:48.256Z,6.44
2023-02-14T22:38:50.229Z,6.73
2023-02-14T22:41:52.167Z,6.88
2023-02-14T22:44:54.124Z,5.99
2023-02-14T22:47:56.257Z,5.62
2023-02-14T22:50:58.282Z,5.91
2023-02-14T22:54:04.767Z,5.80
2023-02-14T22:57:06.786Z,6.36
2023-02-14T23:00:11.699Z,5.03
2023-02-14T23:03:14.004Z,5.33
2023-02-14T23:06:16.069Z,5.30
2023-02-14T23:09:18.256Z,4.42
2023-02-14T23:12:38.864Z,5.01
2023-02-14T23:15:59.482Z,6.11
2023-02-14T23:19:20.018Z,5.52
2023-02-14T23:22:25.811Z,6.02
2023-02-14T23:25:27.639Z,5.22
2023-02-14T23:28:29.766Z,6.02
2023-02-14T23:31:31.766Z,4.69
2023-02-14T23:34:34.507Z,4.51
2023-02-14T23:37:36.382Z,5.71
2023-02-14T23:40:56.860Z,5.70
2023-02-14T23:43:59.289Z,5.70
2023-02-14T23:47:03.129Z,5.57
2023-02-14T23:50:05.174Z,6.17
2023-02-14T23:53:07.087Z,5.10
2023-02-14T23:56:08.989Z,5.94
2023-02-14T23:59:10.845Z,5.00
